EDW385R LICA-LSZH
Flight info
| Callsign | EDW385R |
|---|---|
| Flight time | 1h 35m |
| Altitude | 34000 |
| Route | ARBUM DCT EVINO DCT NIKMA DCT CANNE Z651 KELIP |
| Aircraft | A320/M-SDE3FGHIRWY/LB1 |
Departure
| Time | 2026-05-07 19:11 |
|---|---|
| Airport | Lamezia Terme Sant'Eufemia International Airport (LICA) |
Arrival
| Time | 2026-05-07 20:46 |
|---|---|
| Airport | Zürich Airport (LSZH) |
| Time | Latitude | Longitude | Altitude | Speed | Heading |
|---|---|---|---|---|---|
| 2026-05-07 18:37 | 38.90853 | 16.24689 | 32 ft | 0 kts | 54° |
| 2026-05-07 19:05 | 38.90852 | 16.24694 | 32 ft | 1 kts | 85° |
| 2026-05-07 19:05 | 38.90843 | 16.24703 | 32 ft | 2 kts | 149° |
| 2026-05-07 19:06 | 38.90833 | 16.24701 | 30 ft | 1 kts | 198° |
| 2026-05-07 19:06 | 38.90795 | 16.24673 | 32 ft | 7 kts | 231° |
| 2026-05-07 19:06 | 38.90783 | 16.24592 | 32 ft | 10 kts | 236° |
| 2026-05-07 19:07 | 38.90729 | 16.24521 | 32 ft | 15 kts | 274° |
| 2026-05-07 19:07 | 38.90748 | 16.24369 | 32 ft | 20 kts | 280° |
| 2026-05-07 19:07 | 38.90774 | 16.24176 | 32 ft | 24 kts | 278° |
| 2026-05-07 19:07 | 38.90794 | 16.23976 | 32 ft | 22 kts | 277° |
| 2026-05-07 19:08 | 38.90814 | 16.23793 | 32 ft | 20 kts | 278° |
| 2026-05-07 19:08 | 38.90834 | 16.23626 | 32 ft | 18 kts | 279° |
| 2026-05-07 19:08 | 38.90852 | 16.23470 | 32 ft | 18 kts | 279° |
| 2026-05-07 19:08 | 38.90873 | 16.23304 | 31 ft | 20 kts | 279° |
| 2026-05-07 19:09 | 38.90872 | 16.23132 | 32 ft | 18 kts | 255° |
| 2026-05-07 19:09 | 38.90818 | 16.22995 | 32 ft | 16 kts | 236° |
| 2026-05-07 19:09 | 38.90745 | 16.22908 | 33 ft | 14 kts | 199° |
| 2026-05-07 19:09 | 38.90708 | 16.22893 | 33 ft | 1 kts | 196° |
| 2026-05-07 19:10 | 38.90700 | 16.22900 | 33 ft | 2 kts | 144° |
| 2026-05-07 19:10 | 38.90693 | 16.22928 | 33 ft | 6 kts | 103° |
| 2026-05-07 19:10 | 38.90662 | 16.23166 | 38 ft | 59 kts | 97° |
| 2026-05-07 19:10 | 38.90573 | 16.23962 | 30 ft | 119 kts | 98° |
| 2026-05-07 19:11 | 38.90419 | 16.25173 | 247 ft | 143 kts | 98° |
| 2026-05-07 19:11 | 38.90238 | 16.26429 | 798 ft | 143 kts | 96° |
| 2026-05-07 19:11 | 38.90055 | 16.27688 | 1436 ft | 143 kts | 100° |
| 2026-05-07 19:11 | 38.89869 | 16.28974 | 1988 ft | 154 kts | 101° |
| 2026-05-07 19:12 | 38.89658 | 16.30421 | 2269 ft | 177 kts | 102° |
| 2026-05-07 19:12 | 38.89416 | 16.32082 | 2571 ft | 201 kts | 102° |
| 2026-05-07 19:12 | 38.89153 | 16.33905 | 3178 ft | 214 kts | 101° |
| 2026-05-07 19:12 | 38.88880 | 16.35817 | 3837 ft | 221 kts | 101° |
| 2026-05-07 19:13 | 38.88600 | 16.37777 | 4669 ft | 223 kts | 102° |
| 2026-05-07 19:13 | 38.88320 | 16.39726 | 5582 ft | 224 kts | 103° |
| 2026-05-07 19:13 | 38.88086 | 16.41714 | 6350 ft | 231 kts | 95° |
| 2026-05-07 19:13 | 38.88578 | 16.43807 | 6703 ft | 267 kts | 59° |
| 2026-05-07 19:14 | 38.90091 | 16.45314 | 7250 ft | 291 kts | 24° |
| 2026-05-07 19:14 | 38.92148 | 16.45592 | 7842 ft | 309 kts | 351° |
| 2026-05-07 19:14 | 38.94121 | 16.44463 | 8445 ft | 314 kts | 316° |
| 2026-05-07 19:14 | 38.95343 | 16.42242 | 9357 ft | 299 kts | 283° |
| 2026-05-07 19:15 | 38.95622 | 16.39662 | 10298 ft | 290 kts | 267° |
| 2026-05-07 19:15 | 38.96009 | 16.37017 | 10602 ft | 321 kts | 288° |
| 2026-05-07 19:15 | 38.97200 | 16.34438 | 10770 ft | 351 kts | 302° |
| 2026-05-07 19:15 | 38.98820 | 16.31933 | 10894 ft | 377 kts | 307° |
| 2026-05-07 19:16 | 39.00627 | 16.29369 | 11039 ft | 396 kts | 308° |
| 2026-05-07 19:16 | 39.02457 | 16.26680 | 11484 ft | 402 kts | 306° |
| 2026-05-07 19:16 | 39.04223 | 16.23875 | 12083 ft | 404 kts | 303° |
| 2026-05-07 19:16 | 39.05909 | 16.20972 | 12704 ft | 406 kts | 301° |
| 2026-05-07 19:17 | 39.07540 | 16.17993 | 13316 ft | 408 kts | 300° |
| 2026-05-07 19:17 | 39.09145 | 16.14968 | 13941 ft | 410 kts | 300° |
| 2026-05-07 19:17 | 39.10728 | 16.11964 | 14510 ft | 411 kts | 300° |
| 2026-05-07 19:17 | 39.12343 | 16.08917 | 15099 ft | 413 kts | 300° |
| 2026-05-07 19:18 | 39.13979 | 16.05865 | 15627 ft | 416 kts | 301° |
| 2026-05-07 19:18 | 39.15638 | 16.02800 | 16120 ft | 419 kts | 302° |
| 2026-05-07 19:18 | 39.17317 | 15.99720 | 16628 ft | 421 kts | 302° |
| 2026-05-07 19:18 | 39.19006 | 15.96626 | 17135 ft | 423 kts | 302° |
| 2026-05-07 19:19 | 39.20700 | 15.93515 | 17615 ft | 425 kts | 302° |
| 2026-05-07 19:19 | 39.22398 | 15.90388 | 18073 ft | 427 kts | 302° |
| 2026-05-07 19:19 | 39.24100 | 15.87242 | 18494 ft | 428 kts | 301° |
| 2026-05-07 19:19 | 39.25803 | 15.84078 | 18876 ft | 430 kts | 301° |
| 2026-05-07 19:20 | 39.27576 | 15.80966 | 19278 ft | 433 kts | 307° |
| 2026-05-07 19:20 | 39.29713 | 15.78188 | 19639 ft | 439 kts | 316° |
| 2026-05-07 19:20 | 39.32042 | 15.75638 | 20008 ft | 440 kts | 316° |
| 2026-05-07 19:20 | 39.34380 | 15.73081 | 20377 ft | 441 kts | 316° |
| 2026-05-07 19:21 | 39.36726 | 15.70513 | 20722 ft | 442 kts | 316° |
| 2026-05-07 19:21 | 39.39074 | 15.67934 | 21066 ft | 443 kts | 316° |
| 2026-05-07 19:21 | 39.41422 | 15.65344 | 21393 ft | 445 kts | 316° |
| 2026-05-07 19:21 | 39.43778 | 15.62739 | 21659 ft | 447 kts | 316° |
| 2026-05-07 19:22 | 39.46149 | 15.60113 | 21935 ft | 449 kts | 316° |
| 2026-05-07 19:22 | 39.48527 | 15.57477 | 22244 ft | 451 kts | 316° |
| 2026-05-07 19:22 | 39.50911 | 15.54833 | 22541 ft | 452 kts | 316° |
| 2026-05-07 19:22 | 39.53273 | 15.52209 | 22826 ft | 453 kts | 316° |
| 2026-05-07 19:23 | 39.55702 | 15.49512 | 23098 ft | 455 kts | 316° |
| 2026-05-07 19:23 | 39.58077 | 15.46877 | 23359 ft | 456 kts | 316° |
| 2026-05-07 19:23 | 39.60487 | 15.44200 | 23608 ft | 457 kts | 316° |
| 2026-05-07 19:23 | 39.62900 | 15.41517 | 23822 ft | 458 kts | 315° |
| 2026-05-07 19:24 | 39.65321 | 15.38825 | 24030 ft | 459 kts | 315° |
| 2026-05-07 19:24 | 39.67745 | 15.36122 | 24234 ft | 460 kts | 315° |
| 2026-05-07 19:24 | 39.70173 | 15.33415 | 24409 ft | 460 kts | 315° |
| 2026-05-07 19:24 | 39.72728 | 15.30889 | 24641 ft | 464 kts | 321° |
| 2026-05-07 19:25 | 39.75390 | 15.28540 | 24925 ft | 462 kts | 321° |
| 2026-05-07 19:25 | 39.78050 | 15.26194 | 25195 ft | 461 kts | 321° |
| 2026-05-07 19:25 | 39.80703 | 15.23854 | 25457 ft | 460 kts | 320° |
| 2026-05-07 19:25 | 39.83353 | 15.21517 | 25717 ft | 459 kts | 320° |
| 2026-05-07 19:26 | 39.85994 | 15.19188 | 25987 ft | 459 kts | 320° |
| 2026-05-07 19:26 | 39.88630 | 15.16858 | 26266 ft | 458 kts | 320° |
| 2026-05-07 19:26 | 39.91260 | 15.14532 | 26573 ft | 457 kts | 320° |
| 2026-05-07 19:26 | 39.93885 | 15.12211 | 26885 ft | 455 kts | 320° |
| 2026-05-07 19:27 | 39.96497 | 15.09901 | 27200 ft | 453 kts | 320° |
| 2026-05-07 19:27 | 39.99104 | 15.07596 | 27512 ft | 452 kts | 319° |
| 2026-05-07 19:27 | 40.01699 | 15.05297 | 27820 ft | 450 kts | 319° |
| 2026-05-07 19:27 | 40.04282 | 15.03001 | 28131 ft | 449 kts | 319° |
| 2026-05-07 19:28 | 40.06856 | 15.00707 | 28459 ft | 447 kts | 318° |
| 2026-05-07 19:28 | 40.09420 | 14.98415 | 28781 ft | 446 kts | 318° |
| 2026-05-07 19:28 | 40.11940 | 14.96161 | 29095 ft | 445 kts | 318° |
| 2026-05-07 19:28 | 40.14492 | 14.93883 | 29419 ft | 443 kts | 318° |
| 2026-05-07 19:29 | 40.17034 | 14.91615 | 29780 ft | 442 kts | 319° |
| 2026-05-07 19:29 | 40.19578 | 14.89342 | 30050 ft | 442 kts | 319° |
| 2026-05-07 19:29 | 40.22118 | 14.87073 | 30292 ft | 442 kts | 318° |
| 2026-05-07 19:29 | 40.24650 | 14.84808 | 30553 ft | 441 kts | 318° |
| 2026-05-07 19:30 | 40.27180 | 14.82540 | 30814 ft | 440 kts | 317° |
| 2026-05-07 19:30 | 40.29707 | 14.80272 | 31079 ft | 439 kts | 317° |
| 2026-05-07 19:30 | 40.32222 | 14.78012 | 31343 ft | 438 kts | 317° |
| 2026-05-07 19:30 | 40.34734 | 14.75752 | 31606 ft | 437 kts | 317° |
| 2026-05-07 19:31 | 40.37243 | 14.73492 | 31874 ft | 436 kts | 316° |
| 2026-05-07 19:31 | 40.39740 | 14.71239 | 32137 ft | 436 kts | 316° |
| 2026-05-07 19:31 | 40.42236 | 14.68985 | 32441 ft | 434 kts | 317° |
| 2026-05-07 19:31 | 40.44724 | 14.66743 | 32726 ft | 433 kts | 317° |
| 2026-05-07 19:32 | 40.47203 | 14.64514 | 33004 ft | 431 kts | 316° |
| 2026-05-07 19:32 | 40.49673 | 14.62287 | 33280 ft | 430 kts | 316° |
| 2026-05-07 19:32 | 40.52134 | 14.60062 | 33560 ft | 429 kts | 316° |
| 2026-05-07 19:32 | 40.54583 | 14.57841 | 33825 ft | 428 kts | 316° |
| 2026-05-07 19:33 | 40.59491 | 14.53365 | 33911 ft | 432 kts | 316° |
| 2026-05-07 19:33 | 40.64423 | 14.48875 | 33909 ft | 434 kts | 316° |
| 2026-05-07 19:34 | 40.69391 | 14.44366 | 33918 ft | 434 kts | 317° |
| 2026-05-07 19:34 | 40.74355 | 14.39840 | 33911 ft | 434 kts | 317° |
| 2026-05-07 19:35 | 40.79319 | 14.35310 | 33947 ft | 434 kts | 317° |
| 2026-05-07 19:35 | 40.84282 | 14.30766 | 33950 ft | 434 kts | 317° |
| 2026-05-07 19:36 | 40.89241 | 14.26212 | 33975 ft | 434 kts | 317° |
| 2026-05-07 19:36 | 40.94216 | 14.21647 | 33954 ft | 436 kts | 317° |
| 2026-05-07 19:37 | 40.99192 | 14.17068 | 33915 ft | 437 kts | 317° |
| 2026-05-07 19:37 | 41.04185 | 14.12462 | 33912 ft | 437 kts | 317° |
| 2026-05-07 19:38 | 41.09182 | 14.07847 | 33911 ft | 438 kts | 317° |
| 2026-05-07 19:38 | 41.14173 | 14.03219 | 33966 ft | 438 kts | 319° |
| 2026-05-07 19:39 | 41.19166 | 13.98589 | 33961 ft | 437 kts | 319° |
| 2026-05-07 19:39 | 41.23314 | 13.94744 | 33960 ft | 437 kts | 319° |
| 2026-05-07 19:40 | 41.29139 | 13.89333 | 33971 ft | 437 kts | 319° |
| 2026-05-07 19:40 | 41.34114 | 13.84697 | 33984 ft | 436 kts | 319° |
| 2026-05-07 19:41 | 41.39077 | 13.80055 | 33987 ft | 436 kts | 319° |
| 2026-05-07 19:41 | 41.44033 | 13.75414 | 33980 ft | 435 kts | 319° |
| 2026-05-07 19:42 | 41.48979 | 13.70771 | 33995 ft | 435 kts | 319° |
| 2026-05-07 19:42 | 41.53892 | 13.66155 | 33990 ft | 434 kts | 319° |
| 2026-05-07 19:43 | 41.58822 | 13.61503 | 33990 ft | 434 kts | 319° |
| 2026-05-07 19:43 | 41.63762 | 13.56839 | 33977 ft | 435 kts | 319° |
| 2026-05-07 19:44 | 41.68710 | 13.52160 | 33964 ft | 436 kts | 319° |
| 2026-05-07 19:44 | 41.72840 | 13.48258 | 33967 ft | 438 kts | 319° |
| 2026-05-07 19:45 | 41.77820 | 13.43537 | 33960 ft | 439 kts | 319° |
| 2026-05-07 19:45 | 41.82806 | 13.38797 | 33960 ft | 440 kts | 319° |
| 2026-05-07 19:46 | 41.87800 | 13.34046 | 33986 ft | 440 kts | 319° |
| 2026-05-07 19:46 | 41.92797 | 13.29280 | 33991 ft | 441 kts | 319° |
| 2026-05-07 19:47 | 41.97797 | 13.24501 | 33998 ft | 441 kts | 319° |
| 2026-05-07 19:47 | 42.02800 | 13.19715 | 33999 ft | 441 kts | 319° |
| 2026-05-07 19:48 | 42.07788 | 13.14916 | 33999 ft | 441 kts | 318° |
| 2026-05-07 19:48 | 42.12776 | 13.10101 | 34010 ft | 441 kts | 319° |
| 2026-05-07 19:49 | 42.17774 | 13.05289 | 33995 ft | 442 kts | 319° |
| 2026-05-07 19:49 | 42.22774 | 13.00473 | 33996 ft | 442 kts | 319° |
| 2026-05-07 19:50 | 42.27771 | 12.95648 | 33994 ft | 442 kts | 319° |
| 2026-05-07 19:50 | 42.32732 | 12.90839 | 34010 ft | 442 kts | 318° |
| 2026-05-07 19:51 | 42.37720 | 12.86000 | 34007 ft | 441 kts | 318° |
| 2026-05-07 19:51 | 42.42698 | 12.81149 | 34007 ft | 441 kts | 318° |
| 2026-05-07 19:52 | 42.47672 | 12.76287 | 34011 ft | 441 kts | 317° |
| 2026-05-07 19:52 | 42.52640 | 12.71437 | 34018 ft | 441 kts | 317° |
| 2026-05-07 19:53 | 42.57610 | 12.66570 | 34019 ft | 441 kts | 317° |
| 2026-05-07 19:53 | 42.62575 | 12.61698 | 34005 ft | 440 kts | 317° |
| 2026-05-07 19:54 | 42.67534 | 12.56824 | 34002 ft | 440 kts | 317° |
| 2026-05-07 19:54 | 42.72493 | 12.51944 | 33998 ft | 440 kts | 317° |
| 2026-05-07 19:55 | 42.77446 | 12.47057 | 34024 ft | 439 kts | 316° |
| 2026-05-07 19:55 | 42.82349 | 12.42210 | 34019 ft | 438 kts | 316° |
| 2026-05-07 19:56 | 42.87271 | 12.37340 | 34020 ft | 437 kts | 316° |
| 2026-05-07 19:56 | 42.92175 | 12.32467 | 34005 ft | 436 kts | 316° |
| 2026-05-07 19:57 | 42.97069 | 12.27587 | 34011 ft | 436 kts | 316° |
| 2026-05-07 19:57 | 43.01953 | 12.22714 | 34017 ft | 434 kts | 315° |
| 2026-05-07 19:58 | 43.06818 | 12.17855 | 34027 ft | 432 kts | 315° |
| 2026-05-07 19:58 | 43.11679 | 12.13017 | 34027 ft | 432 kts | 316° |
| 2026-05-07 19:59 | 43.16534 | 12.08180 | 34019 ft | 431 kts | 315° |
| 2026-05-07 19:59 | 43.21375 | 12.03338 | 34053 ft | 431 kts | 315° |
| 2026-05-07 20:00 | 43.26209 | 11.98493 | 34012 ft | 430 kts | 315° |
| 2026-05-07 20:00 | 43.31038 | 11.93642 | 34011 ft | 430 kts | 315° |
| 2026-05-07 20:01 | 43.35864 | 11.88787 | 34015 ft | 430 kts | 315° |
| 2026-05-07 20:01 | 43.40688 | 11.83924 | 34014 ft | 430 kts | 315° |
| 2026-05-07 20:02 | 43.45508 | 11.79058 | 34040 ft | 429 kts | 315° |
| 2026-05-07 20:02 | 43.50320 | 11.74190 | 34043 ft | 429 kts | 315° |
| 2026-05-07 20:03 | 43.55132 | 11.69325 | 34056 ft | 429 kts | 315° |
| 2026-05-07 20:03 | 43.59909 | 11.64485 | 34058 ft | 429 kts | 315° |
| 2026-05-07 20:04 | 43.64714 | 11.59604 | 34079 ft | 429 kts | 315° |
| 2026-05-07 20:04 | 43.69506 | 11.54715 | 34073 ft | 428 kts | 315° |
| 2026-05-07 20:05 | 43.74293 | 11.49820 | 34066 ft | 428 kts | 315° |
| 2026-05-07 20:05 | 43.79070 | 11.44922 | 34066 ft | 427 kts | 315° |
| 2026-05-07 20:06 | 43.83846 | 11.40024 | 34072 ft | 427 kts | 315° |
| 2026-05-07 20:06 | 43.88612 | 11.35119 | 34097 ft | 426 kts | 315° |
| 2026-05-07 20:07 | 43.93356 | 11.30231 | 34107 ft | 425 kts | 315° |
| 2026-05-07 20:07 | 43.98099 | 11.25340 | 34100 ft | 424 kts | 315° |
| 2026-05-07 20:08 | 44.02838 | 11.20446 | 34048 ft | 424 kts | 315° |
| 2026-05-07 20:08 | 44.07565 | 11.15544 | 34093 ft | 424 kts | 315° |
| 2026-05-07 20:09 | 44.12275 | 11.10648 | 34105 ft | 422 kts | 315° |
| 2026-05-07 20:10 | 44.19314 | 11.03306 | 34107 ft | 420 kts | 315° |
| 2026-05-07 20:10 | 44.23995 | 10.98419 | 34106 ft | 420 kts | 315° |
| 2026-05-07 20:11 | 44.28675 | 10.93532 | 34096 ft | 420 kts | 315° |
| 2026-05-07 20:11 | 44.33346 | 10.88640 | 34088 ft | 420 kts | 315° |
| 2026-05-07 20:12 | 44.37988 | 10.83766 | 34088 ft | 420 kts | 315° |
| 2026-05-07 20:12 | 44.42655 | 10.78857 | 34087 ft | 420 kts | 315° |
| 2026-05-07 20:13 | 44.47317 | 10.73936 | 34090 ft | 420 kts | 315° |
| 2026-05-07 20:13 | 44.51979 | 10.69000 | 34096 ft | 420 kts | 315° |
| 2026-05-07 20:14 | 44.56640 | 10.64061 | 34082 ft | 420 kts | 315° |
| 2026-05-07 20:14 | 44.61301 | 10.59116 | 34071 ft | 420 kts | 315° |
| 2026-05-07 20:15 | 44.65965 | 10.54165 | 34070 ft | 420 kts | 315° |
| 2026-05-07 20:15 | 44.70626 | 10.49202 | 34044 ft | 420 kts | 315° |
| 2026-05-07 20:16 | 44.75284 | 10.44217 | 34032 ft | 421 kts | 315° |
| 2026-05-07 20:16 | 44.79948 | 10.39217 | 34027 ft | 422 kts | 315° |
| 2026-05-07 20:17 | 44.84621 | 10.34208 | 34005 ft | 422 kts | 315° |
| 2026-05-07 20:17 | 44.89303 | 10.29190 | 33994 ft | 423 kts | 315° |
| 2026-05-07 20:18 | 44.93991 | 10.24142 | 33994 ft | 425 kts | 316° |
| 2026-05-07 20:18 | 44.98661 | 10.19111 | 33981 ft | 426 kts | 316° |
| 2026-05-07 20:19 | 45.03376 | 10.14017 | 33957 ft | 427 kts | 316° |
| 2026-05-07 20:19 | 45.08091 | 10.08899 | 33959 ft | 427 kts | 315° |
| 2026-05-07 20:20 | 45.12804 | 10.03767 | 33962 ft | 428 kts | 315° |
| 2026-05-07 20:20 | 45.17531 | 9.98616 | 33966 ft | 429 kts | 316° |
| 2026-05-07 20:21 | 45.22272 | 9.93457 | 33955 ft | 430 kts | 316° |
| 2026-05-07 20:21 | 45.27014 | 9.88280 | 33955 ft | 430 kts | 316° |
| 2026-05-07 20:22 | 45.31761 | 9.83087 | 33961 ft | 431 kts | 316° |
| 2026-05-07 20:22 | 45.36502 | 9.77874 | 33995 ft | 431 kts | 316° |
| 2026-05-07 20:23 | 45.41252 | 9.72654 | 34005 ft | 431 kts | 316° |
| 2026-05-07 20:23 | 45.45997 | 9.67414 | 34010 ft | 432 kts | 316° |
| 2026-05-07 20:24 | 45.50716 | 9.62200 | 34015 ft | 432 kts | 316° |
| 2026-05-07 20:24 | 45.55469 | 9.56949 | 34015 ft | 432 kts | 316° |
| 2026-05-07 20:25 | 45.60218 | 9.51674 | 34028 ft | 433 kts | 316° |
| 2026-05-07 20:25 | 45.64966 | 9.46386 | 34021 ft | 433 kts | 316° |
| 2026-05-07 20:26 | 45.69715 | 9.41098 | 34014 ft | 433 kts | 317° |
| 2026-05-07 20:26 | 45.74471 | 9.35789 | 33978 ft | 434 kts | 316° |
| 2026-05-07 20:27 | 45.79227 | 9.30460 | 33995 ft | 434 kts | 317° |
| 2026-05-07 20:27 | 45.83989 | 9.25123 | 33999 ft | 435 kts | 317° |
| 2026-05-07 20:28 | 45.88749 | 9.19763 | 34010 ft | 435 kts | 317° |
| 2026-05-07 20:28 | 45.93511 | 9.14392 | 34012 ft | 435 kts | 317° |
| 2026-05-07 20:29 | 45.98242 | 9.09047 | 34024 ft | 436 kts | 317° |
| 2026-05-07 20:29 | 46.03013 | 9.03647 | 34035 ft | 437 kts | 317° |
| 2026-05-07 20:30 | 46.07785 | 8.98227 | 34026 ft | 437 kts | 317° |
| 2026-05-07 20:30 | 46.12559 | 8.92806 | 33999 ft | 437 kts | 318° |
| 2026-05-07 20:31 | 46.17961 | 8.88623 | 33996 ft | 449 kts | 336° |
| 2026-05-07 20:31 | 46.24166 | 8.87001 | 34006 ft | 457 kts | 349° |
| 2026-05-07 20:32 | 46.30501 | 8.86051 | 33999 ft | 457 kts | 349° |
| 2026-05-07 20:32 | 46.36827 | 8.85097 | 34002 ft | 457 kts | 349° |
| 2026-05-07 20:33 | 46.43143 | 8.84143 | 34043 ft | 455 kts | 349° |
| 2026-05-07 20:33 | 46.49438 | 8.83194 | 34065 ft | 454 kts | 349° |
| 2026-05-07 20:33 | 46.52579 | 8.82725 | 33646 ft | 454 kts | 349° |
| 2026-05-07 20:34 | 46.55744 | 8.82246 | 32363 ft | 462 kts | 349° |
| 2026-05-07 20:34 | 46.58961 | 8.81753 | 31211 ft | 467 kts | 349° |
| 2026-05-07 20:34 | 46.62201 | 8.81253 | 29996 ft | 469 kts | 349° |
| 2026-05-07 20:34 | 46.65466 | 8.80749 | 28597 ft | 474 kts | 349° |
| 2026-05-07 20:35 | 46.68752 | 8.80248 | 27267 ft | 475 kts | 350° |
| 2026-05-07 20:35 | 46.70930 | 8.79920 | 26317 ft | 477 kts | 351° |
| 2026-05-07 20:35 | 46.74242 | 8.79423 | 24870 ft | 480 kts | 351° |
| 2026-05-07 20:35 | 46.77555 | 8.78926 | 23358 ft | 474 kts | 351° |
| 2026-05-07 20:36 | 46.80802 | 8.78438 | 21718 ft | 465 kts | 352° |
| 2026-05-07 20:36 | 46.83987 | 8.77958 | 20259 ft | 455 kts | 352° |
| 2026-05-07 20:36 | 46.87111 | 8.77483 | 18937 ft | 448 kts | 352° |
| 2026-05-07 20:36 | 46.90146 | 8.77022 | 18220 ft | 428 kts | 352° |
| 2026-05-07 20:37 | 46.93045 | 8.76582 | 17443 ft | 412 kts | 352° |
| 2026-05-07 20:37 | 46.95899 | 8.76143 | 16763 ft | 412 kts | 352° |
| 2026-05-07 20:37 | 46.98742 | 8.75698 | 16061 ft | 410 kts | 352° |
| 2026-05-07 20:37 | 47.01577 | 8.75249 | 15405 ft | 410 kts | 353° |
| 2026-05-07 20:38 | 47.04392 | 8.75383 | 15190 ft | 398 kts | 7° |
| 2026-05-07 20:38 | 47.07008 | 8.76111 | 15061 ft | 369 kts | 8° |
| 2026-05-07 20:38 | 47.09437 | 8.76805 | 14934 ft | 343 kts | 8° |
| 2026-05-07 20:38 | 47.11718 | 8.77463 | 14650 ft | 327 kts | 8° |
| 2026-05-07 20:39 | 47.13926 | 8.78100 | 14109 ft | 321 kts | 8° |
| 2026-05-07 20:39 | 47.16100 | 8.78725 | 13475 ft | 317 kts | 8° |
| 2026-05-07 20:39 | 47.18257 | 8.79342 | 12812 ft | 314 kts | 8° |
| 2026-05-07 20:39 | 47.20389 | 8.79952 | 12147 ft | 311 kts | 9° |
| 2026-05-07 20:40 | 47.22504 | 8.80557 | 11494 ft | 308 kts | 9° |
| 2026-05-07 20:40 | 47.24600 | 8.81160 | 10859 ft | 305 kts | 9° |
| 2026-05-07 20:40 | 47.26675 | 8.81762 | 10212 ft | 303 kts | 9° |
| 2026-05-07 20:40 | 47.28735 | 8.82363 | 9538 ft | 301 kts | 9° |
| 2026-05-07 20:41 | 47.30777 | 8.82961 | 8872 ft | 297 kts | 10° |
| 2026-05-07 20:41 | 47.32795 | 8.83551 | 8146 ft | 296 kts | 10° |
| 2026-05-07 20:41 | 47.34818 | 8.84140 | 7356 ft | 297 kts | 11° |
| 2026-05-07 20:41 | 47.36840 | 8.84732 | 6580 ft | 296 kts | 11° |
| 2026-05-07 20:42 | 47.38847 | 8.85320 | 5975 ft | 288 kts | 11° |
| 2026-05-07 20:42 | 47.40716 | 8.85831 | 5791 ft | 265 kts | 6° |
| 2026-05-07 20:42 | 47.42446 | 8.85391 | 5681 ft | 243 kts | 330° |
| 2026-05-07 20:42 | 47.43586 | 8.83704 | 5398 ft | 239 kts | 294° |
| 2026-05-07 20:43 | 47.43950 | 8.81356 | 5016 ft | 232 kts | 275° |
| 2026-05-07 20:43 | 47.44088 | 8.79022 | 4670 ft | 225 kts | 275° |
| 2026-05-07 20:43 | 47.44237 | 8.76758 | 4347 ft | 218 kts | 276° |
| 2026-05-07 20:43 | 47.44395 | 8.74562 | 4023 ft | 212 kts | 277° |
| 2026-05-07 20:44 | 47.44551 | 8.72418 | 3716 ft | 209 kts | 277° |
| 2026-05-07 20:44 | 47.44706 | 8.70295 | 3411 ft | 207 kts | 277° |
| 2026-05-07 20:44 | 47.44859 | 8.68188 | 3150 ft | 203 kts | 277° |
| 2026-05-07 20:44 | 47.45004 | 8.66168 | 2820 ft | 193 kts | 277° |
| 2026-05-07 20:45 | 47.45141 | 8.64266 | 2532 ft | 179 kts | 278° |
| 2026-05-07 20:45 | 47.45267 | 8.62506 | 2287 ft | 163 kts | 278° |
| 2026-05-07 20:45 | 47.45383 | 8.60897 | 2022 ft | 152 kts | 277° |
| 2026-05-07 20:45 | 47.45493 | 8.59368 | 1803 ft | 147 kts | 277° |
| 2026-05-07 20:46 | 47.45602 | 8.57867 | 1600 ft | 147 kts | 278° |
| 2026-05-07 20:46 | 47.45708 | 8.56381 | 1420 ft | 137 kts | 277° |
| 2026-05-07 20:46 | 47.45778 | 8.55394 | 1408 ft | 53 kts | 276° |
| 2026-05-07 20:46 | 47.45771 | 8.55141 | 1401 ft | 14 kts | 209° |
| 2026-05-07 20:47 | 47.45690 | 8.55169 | 1400 ft | 11 kts | 156° |
| 2026-05-07 20:47 | 47.45632 | 8.55209 | 1397 ft | 8 kts | 154° |
| 2026-05-07 20:47 | 47.45581 | 8.55245 | 1404 ft | 8 kts | 155° |
| 2026-05-07 20:47 | 47.45541 | 8.55305 | 1401 ft | 9 kts | 105° |
| 2026-05-07 20:48 | 47.45533 | 8.55402 | 1407 ft | 9 kts | 96° |
| 2026-05-07 20:48 | 47.45527 | 8.55496 | 1407 ft | 9 kts | 95° |
| 2026-05-07 20:48 | 47.45498 | 8.55572 | 1407 ft | 9 kts | 161° |
| 2026-05-07 20:48 | 47.45441 | 8.55569 | 1407 ft | 0 kts | 186° |